createdAt,value
2018-12-29T00:02:12.028Z,26.53
2018-12-29T00:04:44.394Z,34.03
2018-12-29T00:07:16.723Z,28.87
2018-12-29T00:09:49.085Z,34.30
2018-12-29T00:12:21.409Z,22.83
2018-12-29T00:14:55.137Z,33.80
2018-12-29T00:17:27.598Z,27.83
2018-12-29T00:19:59.976Z,31.67
2018-12-29T00:22:32.296Z,29.77
2018-12-29T00:25:04.761Z,27.20
2018-12-29T00:27:37.098Z,29.80
2018-12-29T00:30:09.668Z,24.87
2018-12-29T00:32:42.097Z,27.53
2018-12-29T00:35:14.575Z,25.70
2018-12-29T00:37:47.006Z,26.80
2018-12-29T00:40:19.372Z,22.57
2018-12-29T00:42:51.803Z,22.37
2018-12-29T00:45:24.278Z,26.97
2018-12-29T00:47:56.746Z,29.93
2018-12-29T00:50:29.115Z,27.70
2018-12-29T00:53:01.447Z,25.67
2018-12-29T00:55:33.816Z,28.30
2018-12-29T00:58:06.002Z,19.73
2018-12-29T01:00:38.350Z,33.57
2018-12-29T01:03:10.545Z,17.73
2018-12-29T01:05:42.766Z,21.13
2018-12-29T01:08:15.172Z,26.17
2018-12-29T01:10:47.537Z,22.30
2018-12-29T01:13:19.863Z,29.70
2018-12-29T01:15:52.236Z,22.10
2018-12-29T01:18:24.565Z,25.33
2018-12-29T01:20:56.937Z,23.53
2018-12-29T01:23:29.255Z,25.43
2018-12-29T01:26:01.723Z,25.77
2018-12-29T01:28:34.050Z,31.73
2018-12-29T01:31:06.513Z,28.20
2018-12-29T01:33:38.842Z,26.30
2018-12-29T01:36:11.307Z,30.87
2018-12-29T01:38:43.631Z,26.33
2018-12-29T01:41:16.000Z,25.23
2018-12-29T01:43:48.322Z,29.47
2018-12-29T01:46:20.679Z,31.63
2018-12-29T01:48:53.051Z,27.47
2018-12-29T01:51:25.624Z,28.33
2018-12-29T01:53:58.188Z,22.87
2018-12-29T01:56:30.562Z,32.40
2018-12-29T01:59:02.882Z,22.87
2018-12-29T02:01:35.344Z,25.90
2018-12-29T02:04:07.659Z,21.93
2018-12-29T02:06:40.026Z,20.73
2018-12-29T02:09:12.367Z,26.10
2018-12-29T02:11:44.832Z,28.20
2018-12-29T02:14:17.029Z,22.80
2018-12-29T02:16:49.360Z,23.57
2018-12-29T02:19:21.881Z,26.67
2018-12-29T02:21:54.251Z,26.83
2018-12-29T02:24:26.575Z,32.50
2018-12-29T02:26:58.932Z,29.67
2018-12-29T02:29:31.253Z,33.07
2018-12-29T02:32:03.611Z,35.83
2018-12-29T02:34:36.034Z,31.80
2018-12-29T02:37:08.399Z,26.80
2018-12-29T02:39:40.729Z,34.33
2018-12-29T02:42:13.098Z,32.40
2018-12-29T02:44:45.409Z,30.40
2018-12-29T02:47:17.928Z,26.87
2018-12-29T02:49:50.338Z,24.53
2018-12-29T02:52:22.764Z,23.13
2018-12-29T02:54:55.076Z,30.30
2018-12-29T02:57:27.447Z,32.20
2018-12-29T02:59:59.782Z,25.30
2018-12-29T03:02:32.154Z,27.47
2018-12-29T03:05:04.582Z,30.97
2018-12-29T03:07:37.036Z,31.63
2018-12-29T03:10:09.565Z,27.23
2018-12-29T03:12:41.936Z,28.27
2018-12-29T03:15:14.719Z,31.90
2018-12-29T03:17:47.289Z,30.37
2018-12-29T03:20:19.607Z,32.43
2018-12-29T03:22:51.978Z,29.60
2018-12-29T03:25:24.303Z,30.03
2018-12-29T03:27:56.661Z,30.03
2018-12-29T03:30:28.996Z,25.27
2018-12-29T03:33:01.482Z,21.57
2018-12-29T03:35:33.928Z,22.83
2018-12-29T03:38:06.733Z,27.27
2018-12-29T03:40:39.154Z,30.20
2018-12-29T03:43:11.527Z,21.50
2018-12-29T03:45:48.983Z,30.90
2018-12-29T03:48:17.940Z,34.90
2018-12-29T03:50:50.254Z,25.70
2018-12-29T03:53:22.927Z,25.87
2018-12-29T03:55:55.256Z,28.63
2018-12-29T03:58:27.591Z,19.50
2018-12-29T04:00:59.939Z,31.00
2018-12-29T04:03:32.290Z,25.77
2018-12-29T04:06:04.658Z,27.43
2018-12-29T04:08:37.032Z,27.37
2018-12-29T04:11:09.447Z,34.07
2018-12-29T04:13:42.582Z,27.60
2018-12-29T04:16:14.998Z,22.43
2018-12-29T04:18:47.374Z,33.90
2018-12-29T04:21:19.733Z,32.27
2018-12-29T04:23:52.108Z,36.23
2018-12-29T04:26:24.474Z,42.23
2018-12-29T04:28:56.845Z,33.50
2018-12-29T04:31:29.202Z,31.33
2018-12-29T04:34:01.577Z,31.00
2018-12-29T04:36:33.945Z,25.77
2018-12-29T04:39:07.470Z,32.87
2018-12-29T04:41:39.839Z,34.33
2018-12-29T04:44:12.215Z,31.40
2018-12-29T04:46:44.589Z,32.03
2018-12-29T04:49:17.015Z,30.47
2018-12-29T04:51:49.382Z,31.07
2018-12-29T04:54:21.767Z,32.57
2018-12-29T04:56:54.132Z,27.30
2018-12-29T04:59:26.513Z,33.67
2018-12-29T05:01:58.881Z,30.03
2018-12-29T05:04:31.255Z,29.30
2018-12-29T05:07:03.632Z,30.13
2018-12-29T05:09:36.016Z,26.77
2018-12-29T05:12:08.377Z,28.60
2018-12-29T05:14:40.753Z,27.60
2018-12-29T05:17:13.122Z,25.57
2018-12-29T05:19:45.501Z,30.33
2018-12-29T05:22:17.873Z,31.23
2018-12-29T05:24:50.351Z,25.03
2018-12-29T05:27:22.822Z,31.30
2018-12-29T05:29:55.203Z,32.87
2018-12-29T05:32:27.576Z,26.50
2018-12-29T05:34:59.946Z,25.00
2018-12-29T05:37:32.411Z,27.10
2018-12-29T05:40:04.991Z,31.87
2018-12-29T05:42:37.352Z,27.27
2018-12-29T05:45:09.936Z,27.00
2018-12-29T05:47:42.311Z,30.20
2018-12-29T05:50:14.835Z,28.53
2018-12-29T05:52:47.204Z,27.30
2018-12-29T05:55:19.679Z,30.10
2018-12-29T05:57:52.042Z,33.77
2018-12-29T06:00:24.437Z,29.73
2018-12-29T06:02:56.799Z,33.60
2018-12-29T06:05:29.173Z,31.13
2018-12-29T06:08:01.539Z,25.53
2018-12-29T06:10:33.910Z,32.83
2018-12-29T06:13:06.283Z,30.90
2018-12-29T06:15:38.655Z,35.23
2018-12-29T06:18:11.029Z,26.60
2018-12-29T06:20:43.401Z,27.10
2018-12-29T06:23:15.758Z,28.90
2018-12-29T06:25:48.723Z,33.13
2018-12-29T06:28:21.096Z,28.40
2018-12-29T06:30:53.480Z,30.87
2018-12-29T06:33:25.844Z,28.83
2018-12-29T06:35:58.216Z,32.90
2018-12-29T06:38:30.579Z,38.53
2018-12-29T06:41:03.063Z,34.07
2018-12-29T06:43:35.428Z,42.73
2018-12-29T06:46:07.810Z,32.93
2018-12-29T06:48:40.288Z,38.33
2018-12-29T06:51:12.800Z,29.67
2018-12-29T06:53:45.173Z,36.30
2018-12-29T06:56:17.541Z,29.90
2018-12-29T06:58:49.907Z,30.23
2018-12-29T07:01:22.276Z,31.13
2018-12-29T07:03:54.628Z,38.70
2018-12-29T07:06:27.000Z,34.80
2018-12-29T07:08:59.361Z,46.83
2018-12-29T07:11:31.829Z,36.23
2018-12-29T07:14:04.211Z,34.83
2018-12-29T07:16:42.177Z,32.77
2018-12-29T07:19:11.064Z,28.77
2018-12-29T07:21:43.429Z,29.30
2018-12-29T07:24:15.799Z,38.43
2018-12-29T07:26:48.180Z,67.33
2018-12-29T07:29:20.558Z,51.03
2018-12-29T07:31:52.928Z,41.30
2018-12-29T07:34:25.259Z,37.97
2018-12-29T07:36:57.640Z,33.50
2018-12-29T07:39:30.117Z,35.63
2018-12-29T07:42:02.489Z,38.90
2018-12-29T07:44:34.853Z,38.43
2018-12-29T07:47:07.218Z,37.50
2018-12-29T07:49:39.746Z,45.53
2018-12-29T07:52:12.116Z,72.37
2018-12-29T07:54:44.481Z,65.70
2018-12-29T07:57:16.850Z,48.07
2018-12-29T07:59:49.222Z,41.77
2018-12-29T08:02:21.590Z,39.97
2018-12-29T08:04:53.955Z,36.27
2018-12-29T08:07:26.331Z,51.40
2018-12-29T08:09:58.647Z,40.27
2018-12-29T08:12:31.010Z,37.93
2018-12-29T08:15:03.492Z,40.63
2018-12-29T08:17:35.860Z,44.53
2018-12-29T08:20:08.488Z,36.17
2018-12-29T08:22:40.970Z,44.90
2018-12-29T08:25:13.335Z,38.60
2018-12-29T08:27:45.708Z,42.50
2018-12-29T08:30:18.084Z,39.80
2018-12-29T08:32:50.453Z,44.90
2018-12-29T08:35:22.821Z,40.20
2018-12-29T08:37:55.191Z,40.07
2018-12-29T08:40:27.563Z,44.33
2018-12-29T08:43:00.324Z,29.50
2018-12-29T08:45:32.689Z,37.53
2018-12-29T08:48:05.171Z,40.93
2018-12-29T08:50:37.585Z,41.47
2018-12-29T08:53:10.053Z,41.13
2018-12-29T08:55:42.421Z,35.83
2018-12-29T08:58:14.789Z,31.00
2018-12-29T09:00:47.155Z,37.37
2018-12-29T09:03:19.536Z,37.70
2018-12-29T09:05:51.920Z,37.30
2018-12-29T09:08:24.292Z,41.73
2018-12-29T09:10:56.654Z,41.30
2018-12-29T09:13:29.031Z,35.73
2018-12-29T09:16:01.501Z,43.43
2018-12-29T09:18:33.869Z,42.10
2018-12-29T09:21:06.241Z,46.50
2018-12-29T09:23:38.627Z,36.87
2018-12-29T09:26:10.988Z,47.93
2018-12-29T09:28:43.460Z,46.77
2018-12-29T09:31:15.833Z,47.93
2018-12-29T09:33:48.204Z,47.80
2018-12-29T09:36:21.381Z,45.80
2018-12-29T09:38:53.831Z,47.53
2018-12-29T09:41:26.208Z,59.90
2018-12-29T09:43:58.583Z,56.03
2018-12-29T09:46:31.050Z,54.53
2018-12-29T09:49:03.422Z,69.07
2018-12-29T09:51:35.939Z,49.90
2018-12-29T09:54:08.413Z,43.97
2018-12-29T09:56:40.798Z,40.10
2018-12-29T09:59:13.170Z,48.20
2018-12-29T10:01:45.531Z,48.00
2018-12-29T10:04:17.911Z,49.90
2018-12-29T10:06:50.281Z,47.47
2018-12-29T10:09:22.753Z,45.77
2018-12-29T10:11:55.124Z,43.90
2018-12-29T10:14:27.483Z,42.63
2018-12-29T10:21:05.417Z,50.83
2018-12-29T10:23:37.746Z,41.37
2018-12-29T10:26:10.119Z,46.30
2018-12-29T10:28:42.536Z,46.57
2018-12-29T10:31:14.899Z,39.33
2018-12-29T10:33:47.210Z,35.43
2018-12-29T10:36:19.676Z,42.87
2018-12-29T10:38:52.004Z,45.93
2018-12-29T10:41:24.371Z,45.20
2018-12-29T10:43:56.701Z,41.07
2018-12-29T10:46:29.269Z,39.67
2018-12-29T10:49:01.702Z,35.73
2018-12-29T10:51:34.114Z,41.30
2018-12-29T10:54:06.539Z,39.20
2018-12-29T10:56:38.917Z,43.03
2018-12-29T10:59:11.239Z,43.53
2018-12-29T11:01:43.616Z,41.17
2018-12-29T11:04:15.987Z,39.37
2018-12-29T11:06:48.423Z,36.50
2018-12-29T11:09:20.744Z,44.03
2018-12-29T11:11:53.106Z,35.87
2018-12-29T11:14:25.430Z,38.13
2018-12-29T11:16:58.114Z,40.97
2018-12-29T11:19:30.443Z,39.17
2018-12-29T11:22:03.022Z,35.90
2018-12-29T11:24:35.361Z,47.27
2018-12-29T11:27:07.718Z,42.97
2018-12-29T11:29:40.142Z,38.73
2018-12-29T11:32:12.511Z,38.23
2018-12-29T11:34:44.840Z,40.83
2018-12-29T11:37:17.213Z,42.43
2018-12-29T11:39:49.526Z,39.07
2018-12-29T11:42:21.895Z,36.57
2018-12-29T11:44:54.232Z,34.00
2018-12-29T11:47:26.600Z,34.43
2018-12-29T11:49:59.110Z,45.73
2018-12-29T11:52:31.532Z,36.57
2018-12-29T11:55:03.860Z,42.23
2018-12-29T11:57:36.229Z,41.30
2018-12-29T12:00:10.449Z,38.77
2018-12-29T12:02:42.826Z,29.83
2018-12-29T12:05:15.155Z,38.13
2018-12-29T12:07:47.528Z,37.00
2018-12-29T12:10:19.856Z,36.70
2018-12-29T12:12:52.230Z,37.10
2018-12-29T12:15:24.662Z,32.63
2018-12-29T12:17:57.592Z,29.77
2018-12-29T12:20:30.267Z,36.97
2018-12-29T12:23:02.637Z,29.77
2018-12-29T12:25:34.958Z,37.40
2018-12-29T12:28:07.626Z,36.37
2018-12-29T12:30:39.952Z,39.07
2018-12-29T12:33:12.633Z,36.23
2018-12-29T12:35:44.956Z,32.50
2018-12-29T12:38:17.633Z,32.53
2018-12-29T12:40:49.962Z,32.20
2018-12-29T12:43:23.899Z,36.90
2018-12-29T12:45:56.464Z,38.93
2018-12-29T12:48:28.834Z,33.80
2018-12-29T12:51:01.514Z,40.43
2018-12-29T12:53:33.889Z,37.73
2018-12-29T12:56:06.312Z,30.97
2018-12-29T12:58:38.677Z,37.60
2018-12-29T13:01:11.507Z,32.40
2018-12-29T13:03:43.974Z,38.47
2018-12-29T13:06:16.297Z,32.97
2018-12-29T13:08:48.664Z,32.10
2018-12-29T13:11:20.986Z,32.37
2018-12-29T13:13:53.357Z,33.83
2018-12-29T13:16:25.682Z,42.57
2018-12-29T13:18:58.346Z,34.03
2018-12-29T13:21:30.672Z,32.77
2018-12-29T13:24:03.046Z,32.17
2018-12-29T13:26:35.474Z,36.07
2018-12-29T13:29:07.844Z,29.60
2018-12-29T13:31:40.272Z,39.33
2018-12-29T13:34:12.654Z,28.17
2018-12-29T13:36:44.976Z,38.33
2018-12-29T13:39:17.450Z,33.73
2018-12-29T13:41:49.778Z,37.10
2018-12-29T13:44:22.148Z,35.93
2018-12-29T13:46:54.475Z,34.60
2018-12-29T13:49:26.841Z,24.63
2018-12-29T13:51:59.414Z,29.37
2018-12-29T13:54:31.775Z,32.37
2018-12-29T13:57:04.108Z,33.57
2018-12-29T13:59:36.489Z,32.17
2018-12-29T14:02:09.020Z,30.33
2018-12-29T14:04:41.446Z,33.70
2018-12-29T14:07:13.819Z,35.00
2018-12-29T14:09:46.191Z,34.33
2018-12-29T14:12:18.520Z,34.47
2018-12-29T14:14:50.980Z,37.37
2018-12-29T14:17:23.309Z,34.23
2018-12-29T14:19:55.852Z,40.00
2018-12-29T14:22:28.177Z,39.20
2018-12-29T14:25:00.540Z,37.33
2018-12-29T14:27:32.978Z,32.90
2018-12-29T14:30:05.548Z,38.13
2018-12-29T14:32:37.876Z,33.80
2018-12-29T14:35:10.348Z,32.00
2018-12-29T14:37:42.882Z,28.03
2018-12-29T14:40:15.445Z,26.90
2018-12-29T14:42:47.767Z,28.80
2018-12-29T14:45:20.240Z,29.90
2018-12-29T14:47:52.663Z,33.77
2018-12-29T14:50:25.431Z,27.10
2018-12-29T14:52:57.794Z,27.40
2018-12-29T14:55:30.623Z,26.77
2018-12-29T14:58:02.991Z,29.43
2018-12-29T15:00:35.600Z,26.97
2018-12-29T15:03:07.968Z,26.27
2018-12-29T15:05:40.335Z,22.03
2018-12-29T15:08:12.755Z,27.37
2018-12-29T15:10:45.129Z,30.17
2018-12-29T15:13:17.840Z,27.83
2018-12-29T15:15:50.205Z,28.53
2018-12-29T15:18:22.834Z,33.37
2018-12-29T15:20:55.499Z,26.43
2018-12-29T15:23:27.828Z,33.23
2018-12-29T15:26:00.195Z,25.07
2018-12-29T15:28:32.518Z,28.50
2018-12-29T15:31:04.992Z,28.43
2018-12-29T15:33:37.612Z,30.50
2018-12-29T15:36:16.021Z,31.40
2018-12-29T15:38:44.304Z,33.93
2018-12-29T15:41:16.679Z,24.77
2018-12-29T15:43:48.999Z,32.43
2018-12-29T15:46:21.463Z,33.60
2018-12-29T15:48:53.819Z,30.90
2018-12-29T15:51:26.530Z,34.10
2018-12-29T15:53:58.852Z,32.00
2018-12-29T15:56:31.522Z,31.40
2018-12-29T15:59:03.926Z,34.57
2018-12-29T16:01:36.440Z,31.60
2018-12-29T16:04:08.762Z,31.90
2018-12-29T16:06:41.139Z,32.50
2018-12-29T16:09:13.464Z,26.97
2018-12-29T16:11:46.232Z,31.73
2018-12-29T16:14:18.644Z,30.10
2018-12-29T16:16:51.319Z,33.27
2018-12-29T16:19:23.658Z,30.17
2018-12-29T16:21:56.010Z,40.67
2018-12-29T16:24:28.523Z,28.50
2018-12-29T16:27:01.000Z,25.53
2018-12-29T16:29:33.327Z,26.77
2018-12-29T16:32:05.845Z,23.60
2018-12-29T16:34:38.275Z,23.13
2018-12-29T16:37:10.745Z,22.17
2018-12-29T16:39:43.269Z,29.40
2018-12-29T16:42:15.631Z,28.50
2018-12-29T16:44:47.951Z,37.73
2018-12-29T16:47:20.317Z,61.70
2018-12-29T16:49:52.646Z,44.13
2018-12-29T16:52:25.359Z,38.50
2018-12-29T16:54:57.680Z,34.93
2018-12-29T16:57:30.052Z,34.20
2018-12-29T17:00:02.370Z,30.83
2018-12-29T17:02:34.739Z,27.10
2018-12-29T17:05:07.662Z,39.33
2018-12-29T17:07:40.023Z,39.07
2018-12-29T17:10:12.340Z,39.23
2018-12-29T17:12:44.716Z,37.10
2018-12-29T17:15:17.231Z,38.47
2018-12-29T17:17:49.602Z,31.37
2018-12-29T17:20:21.921Z,42.27
2018-12-29T17:22:54.289Z,32.97
2018-12-29T17:25:26.613Z,31.00
2018-12-29T17:27:58.987Z,33.33
2018-12-29T17:30:31.319Z,32.77
2018-12-29T17:33:03.682Z,39.07
2018-12-29T17:35:36.505Z,34.97
2018-12-29T17:38:08.873Z,31.10
2018-12-29T17:40:41.193Z,38.63
2018-12-29T17:43:13.564Z,32.03
2018-12-29T17:45:45.991Z,28.20
2018-12-29T17:48:18.360Z,29.87
2018-12-29T17:50:50.682Z,22.03
2018-12-29T17:53:23.394Z,28.57
2018-12-29T17:55:55.707Z,31.17
2018-12-29T17:58:28.185Z,29.87
2018-12-29T18:01:00.611Z,23.90
2018-12-29T18:03:32.975Z,22.97
2018-12-29T18:06:05.300Z,28.30
2018-12-29T18:08:37.673Z,23.87
2018-12-29T18:11:09.994Z,31.13
2018-12-29T18:13:42.361Z,29.40
2018-12-29T18:16:15.409Z,26.40
2018-12-29T18:18:47.836Z,27.97
2018-12-29T18:21:20.157Z,29.97
2018-12-29T18:23:52.525Z,30.03
2018-12-29T18:26:25.249Z,26.07
2018-12-29T18:28:57.615Z,28.93
2018-12-29T18:31:29.932Z,27.97
2018-12-29T18:34:02.303Z,26.47
2018-12-29T18:36:34.617Z,26.57
2018-12-29T18:39:09.388Z,31.90
2018-12-29T18:41:41.714Z,22.30
2018-12-29T18:44:14.382Z,32.97
2018-12-29T18:46:46.710Z,31.33
2018-12-29T18:49:20.053Z,29.07
2018-12-29T18:51:52.383Z,24.87
2018-12-29T18:54:24.803Z,28.10
2018-12-29T18:56:57.229Z,22.87
2018-12-29T18:59:29.602Z,21.37
2018-12-29T19:02:02.230Z,24.10
2018-12-29T19:04:34.590Z,22.37
2018-12-29T19:07:07.010Z,22.40
2018-12-29T19:09:39.372Z,22.60
2018-12-29T19:12:11.796Z,30.13
2018-12-29T19:14:44.290Z,20.60
2018-12-29T19:17:16.613Z,25.13
2018-12-29T19:19:49.284Z,23.00
2018-12-29T19:22:21.608Z,24.03
2018-12-29T19:24:53.972Z,28.77
2018-12-29T19:27:26.297Z,27.27
2018-12-29T19:29:58.666Z,27.87
2018-12-29T19:32:31.283Z,32.17
2018-12-29T19:35:04.056Z,26.60
2018-12-29T19:37:36.678Z,29.70
2018-12-29T19:40:09.649Z,27.93
2018-12-29T19:42:41.974Z,24.80
2018-12-29T19:45:14.337Z,28.13
2018-12-29T19:47:46.653Z,27.47
2018-12-29T19:50:19.305Z,24.13
2018-12-29T19:52:51.679Z,29.90
2018-12-29T19:55:24.042Z,33.97
2018-12-29T19:57:56.371Z,29.80
2018-12-29T20:00:29.033Z,28.27
2018-12-29T20:03:01.354Z,28.87
2018-12-29T20:05:34.117Z,25.43
2018-12-29T20:08:06.442Z,31.53
2018-12-29T20:10:38.982Z,28.47
2018-12-29T20:13:11.629Z,28.80
2018-12-29T20:15:44.008Z,27.03
2018-12-29T20:18:16.335Z,28.27
2018-12-29T20:20:48.699Z,31.20
2018-12-29T20:23:21.224Z,27.97
2018-12-29T20:25:53.598Z,26.80
2018-12-29T20:28:25.970Z,26.47
2018-12-29T20:30:58.335Z,25.47
2018-12-29T20:33:30.761Z,25.17
2018-12-29T20:36:04.209Z,32.85
2018-12-29T20:38:36.533Z,27.53
2018-12-29T20:41:08.898Z,26.10
2018-12-29T20:43:41.319Z,23.60
2018-12-29T20:46:13.724Z,26.47
2018-12-29T20:48:46.154Z,24.77
2018-12-29T20:51:18.562Z,25.53
2018-12-29T20:53:51.343Z,24.90
2018-12-29T20:56:23.704Z,24.63
2018-12-29T20:58:56.024Z,20.30
2018-12-29T21:01:28.389Z,23.57
2018-12-29T21:04:00.713Z,23.13
2018-12-29T21:06:33.197Z,24.10
2018-12-29T21:09:08.756Z,22.37
2018-12-29T21:11:41.246Z,17.90
2018-12-29T21:14:13.566Z,18.10
2018-12-29T21:16:45.809Z,14.07
2018-12-29T21:19:18.204Z,18.33
2018-12-29T21:21:50.577Z,20.80
2018-12-29T21:24:22.866Z,18.70
2018-12-29T21:26:55.237Z,19.93
2018-12-29T21:29:27.436Z,18.20
2018-12-29T21:31:59.797Z,19.70
2018-12-29T21:34:32.232Z,19.93
2018-12-29T21:37:05.107Z,21.53
2018-12-29T21:39:37.526Z,19.77
2018-12-29T21:42:09.891Z,23.13
2018-12-29T21:44:42.259Z,19.37
2018-12-29T21:47:15.025Z,21.53
2018-12-29T21:49:48.560Z,13.53
2018-12-29T21:52:21.182Z,19.33
2018-12-29T21:54:53.651Z,19.07
2018-12-29T21:57:25.985Z,18.37
2018-12-29T21:59:58.155Z,15.17
2018-12-29T22:02:30.354Z,14.40
2018-12-29T22:05:02.635Z,13.70
2018-12-29T22:07:34.845Z,15.30
2018-12-29T22:10:07.885Z,13.23
2018-12-29T22:12:40.152Z,11.37
2018-12-29T22:15:12.406Z,18.53
2018-12-29T22:17:44.624Z,15.67
2018-12-29T22:20:16.968Z,12.63
2018-12-29T22:22:49.180Z,10.00
2018-12-29T22:25:21.449Z,10.60
2018-12-29T22:27:53.832Z,13.03
2018-12-29T22:30:26.467Z,11.40
2018-12-29T22:32:58.742Z,13.00
2018-12-29T22:35:30.909Z,13.30
2018-12-29T22:38:03.121Z,11.40
2018-12-29T22:40:35.385Z,14.17
2018-12-29T22:43:07.592Z,13.13
2018-12-29T22:45:39.758Z,12.73
2018-12-29T22:48:11.981Z,13.85
2018-12-29T22:50:44.151Z,14.40
2018-12-29T22:53:38.722Z,12.97
2018-12-29T22:56:27.119Z,13.70
2018-12-29T22:59:20.181Z,12.93
2018-12-29T23:02:24.354Z,11.93
2018-12-29T23:05:19.394Z,13.40
2018-12-29T23:08:06.132Z,14.67
2018-12-29T23:11:02.180Z,12.27
2018-12-29T23:13:48.439Z,13.17
2018-12-29T23:16:37.210Z,7.70
2018-12-29T23:19:49.227Z,9.93
2018-12-29T23:22:38.638Z,13.13
2018-12-29T23:25:18.240Z,11.80
2018-12-29T23:28:32.721Z,12.27
2018-12-29T23:31:06.857Z,9.30
2018-12-29T23:33:39.147Z,12.50
2018-12-29T23:36:11.311Z,11.20
2018-12-29T23:38:43.522Z,9.43
2018-12-29T23:41:15.882Z,11.17
2018-12-29T23:43:48.471Z,11.23
2018-12-29T23:46:20.628Z,9.47
2018-12-29T23:48:52.915Z,12.93
2018-12-29T23:51:25.163Z,13.07
2018-12-29T23:53:57.627Z,10.53
2018-12-29T23:56:30.118Z,11.63
2018-12-29T23:59:02.404Z,14.63
